Time;durP1;ratioP1;P1;durP2;ratioP2;P2;SDS_P1;SDS_P2;PMS_P1;PMS_P2;Temp;Humidity;BMP_temperature;BMP_pressure;BME280_temperature;BME280_humidity;BME280_pressure;Samples;Min_cycle;Max_cycle;Signal;HPM_P1;HPM_P2
2023/09/03 00:00:42;;;;;;;2.95;1.52;;;;;;;22.78;53.22;100030.78;4494893;31;34472;-73
2023/09/03 00:03:10;;;;;;;3.30;1.60;;;;;;;22.75;53.20;100031.16;4494387;31;34121;-76
2023/09/03 00:05:49;;;;;;;3.50;1.48;;;;;;;22.71;53.27;100036.13;4481660;31;33843;-76
2023/09/03 00:08:17;;;;;;;4.25;1.70;;;;;;;22.65;53.40;100030.59;4497945;31;34025;-76
2023/09/03 00:10:48;;;;;;;3.37;1.35;;;;;;;22.62;53.44;100026.34;4496133;31;33570;-76
2023/09/03 00:13:16;;;;;;;3.12;1.55;;;;;;;22.60;53.49;100024.81;4496643;31;34705;-76
2023/09/03 00:15:44;;;;;;;2.30;1.42;;;;;;;22.52;53.79;100020.31;4494449;31;34633;-75
2023/09/03 00:18:12;;;;;;;2.42;1.58;;;;;;;22.59;53.65;100020.41;4496535;31;34002;-75
2023/09/03 00:21:02;;;;;;;2.15;1.12;;;;;;;22.53;53.85;100020.09;4496279;31;34466;-75
2023/09/03 00:23:31;;;;;;;3.28;1.50;;;;;;;22.54;53.94;100016.37;4434726;32;32936;-75
2023/09/03 00:26:00;;;;;;;2.03;1.33;;;;;;;22.50;54.04;100011.44;4437002;32;34018;-75
2023/09/03 00:28:28;;;;;;;2.42;1.35;;;;;;;22.47;54.11;100017.28;4431323;32;33618;-75
2023/09/03 00:31:08;;;;;;;3.17;1.55;;;;;;;22.39;54.33;100012.75;4433138;32;33419;-75
2023/09/03 00:33:37;;;;;;;1.30;0.85;;;;;;;22.37;54.35;100008.50;4435723;32;33177;-72
2023/09/03 00:36:06;;;;;;;2.62;1.10;;;;;;;22.34;54.41;100004.28;4430712;32;34337;-72
2023/09/03 00:38:34;;;;;;;2.75;1.37;;;;;;;22.43;54.21;100005.91;4432440;32;34446;-72
2023/09/03 00:41:05;;;;;;;4.43;1.70;;;;;;;22.40;54.20;99998.09;4431890;32;34007;-72
2023/09/03 00:43:33;;;;;;;0.85;0.65;;;;;;;22.45;54.06;100003.00;4429271;32;33006;-73
2023/09/03 00:46:04;;;;;;;3.28;1.50;;;;;;;22.49;53.78;100002.44;4428185;32;35011;-72
2023/09/03 00:48:32;;;;;;;1.95;0.98;;;;;;;22.50;53.72;100001.41;4427444;32;34890;-72
2023/09/03 00:51:03;;;;;;;3.50;1.48;;;;;;;22.51;53.72;99997.66;4442576;32;32050;-72
2023/09/03 00:53:33;;;;;;;4.40;1.85;;;;;;;22.45;53.85;99998.38;4433227;32;33179;-72
2023/09/03 00:56:01;;;;;;;2.25;1.00;;;;;;;22.52;53.73;100006.66;4421259;32;33669;-72
2023/09/03 00:58:28;;;;;;;3.55;1.70;;;;;;;22.51;53.84;100005.00;4430681;32;34615;-72
2023/09/03 01:00:56;;;;;;;2.10;1.17;;;;;;;22.48;54.09;100013.53;4465757;31;33185;-72
2023/09/03 01:03:26;;;;;;;2.62;1.52;;;;;;;22.40;54.28;100019.91;4496794;31;33208;-72
2023/09/03 01:05:53;;;;;;;2.55;1.55;;;;;;;22.29;54.55;100013.00;4493100;31;33940;-72
2023/09/03 01:08:21;;;;;;;3.25;1.98;;;;;;;22.31;54.43;100004.62;4489732;31;33420;-72
2023/09/03 01:10:49;;;;;;;3.20;1.33;;;;;;;22.23;54.64;100005.56;4495025;31;34619;-72
2023/09/03 01:14:00;;;;;;;2.72;1.25;;;;;;;22.25;54.75;100008.12;4492928;31;32540;-72
2023/09/03 01:16:33;;;;;;;2.35;1.23;;;;;;;22.32;54.43;100006.34;4499018;31;35547;-72
2023/09/03 01:19:08;;;;;;;3.75;1.67;;;;;;;22.27;54.45;100004.16;4495668;31;33570;-72
2023/09/03 01:22:33;;;;;;;4.07;1.75;;;;;;;21.94;55.47;99995.38;4487030;31;33613;-71
2023/09/03 01:25:12;;;;;;;2.47;1.27;;;;;;;22.05;55.23;99986.81;4461672;32;33925;-72
2023/09/03 01:28:10;;;;;;;2.20;1.27;;;;;;;21.90;55.75;99991.34;4450661;32;33347;-72
2023/09/03 01:30:38;;;;;;;1.83;0.95;;;;;;;21.73;56.23;99979.69;4400163;32;35890;-72
2023/09/03 01:33:06;;;;;;;3.30;1.50;;;;;;;21.91;55.61;99984.00;4399546;32;33510;-72
2023/09/03 01:35:34;;;;;;;5.30;1.10;;;;;;;21.91;55.77;99987.56;4398979;32;33384;-72
2023/09/03 01:38:02;;;;;;;4.60;1.85;;;;;;;22.04;55.56;99995.13;4399077;32;34873;-72
2023/09/03 01:40:30;;;;;;;2.00;1.20;;;;;;;22.09;55.24;99996.28;4390875;32;32479;-72
2023/09/03 01:42:57;;;;;;;2.42;1.40;;;;;;;21.97;55.37;99986.84;4394554;32;34890;-74
2023/09/03 01:45:34;;;;;;;3.30;1.50;;;;;;;21.83;55.44;99982.22;4389279;32;33345;-76
2023/09/03 01:48:14;;;;;;;2.83;1.20;;;;;;;21.72;55.70;99986.19;4390113;32;34952;-70
2023/09/03 01:50:52;;;;;;;8.63;1.73;;;;;;;21.78;55.51;99988.19;4396577;32;33990;-73
2023/09/03 01:53:25;;;;;;;3.72;1.05;;;;;;;21.84;55.37;99986.63;4386741;32;32997;-73
2023/09/03 01:55:57;;;;;;;2.97;1.37;;;;;;;21.91;55.26;99984.00;4399697;32;33252;-74
2023/09/03 01:58:27;;;;;;;3.95;1.40;;;;;;;21.90;55.32;99982.31;4431617;32;33459;-74
2023/09/03 02:00:56;;;;;;;2.60;1.35;;;;;;;21.96;55.06;99987.03;4448031;32;33970;-73
2023/09/03 02:03:26;;;;;;;3.05;1.00;;;;;;;22.01;54.97;99981.88;4426826;32;33606;-69
2023/09/03 02:05:54;;;;;;;2.40;1.37;;;;;;;21.99;54.85;99983.94;4409030;32;33406;-69
2023/09/03 02:08:21;;;;;;;2.53;1.37;;;;;;;21.93;54.99;99990.97;4481735;31;34655;-69
2023/09/03 02:10:50;;;;;;;7.75;1.62;;;;;;;21.80;55.28;99991.59;4495765;31;33973;-69
2023/09/03 02:13:20;;;;;;;2.08;1.45;;;;;;;21.77;55.37;99985.66;4492942;31;34437;-69
2023/09/03 02:15:48;;;;;;;2.78;1.67;;;;;;;21.75;55.50;99988.53;4497937;31;34166;-69
2023/09/03 02:18:16;;;;;;;3.03;1.62;;;;;;;21.78;55.56;99990.91;4495350;31;33809;-69
2023/09/03 02:20:45;;;;;;;1.87;1.08;;;;;;;21.77;55.67;99983.78;4494700;31;34769;-69
2023/09/03 02:23:16;;;;;;;1.98;1.00;;;;;;;21.62;55.87;99989.12;4497646;31;33969;-69
2023/09/03 02:25:43;;;;;;;3.62;1.77;;;;;;;21.61;55.55;99995.63;4497895;31;33030;-69
2023/09/03 02:28:11;;;;;;;2.60;1.33;;;;;;;21.55;55.60;99985.44;4488629;31;35264;-69
2023/09/03 02:30:38;;;;;;;3.17;1.52;;;;;;;21.46;55.79;99993.84;4498836;31;34825;-69
2023/09/03 02:33:06;;;;;;;2.17;1.45;;;;;;;21.42;55.96;99987.06;4498478;31;34302;-69
2023/09/03 02:35:34;;;;;;;1.75;1.12;;;;;;;21.35;56.17;99993.22;4495095;31;34114;-69
2023/09/03 02:38:02;;;;;;;2.55;1.33;;;;;;;21.33;56.17;99991.69;4495657;31;34608;-69
2023/09/03 02:40:29;;;;;;;2.70;1.83;;;;;;;21.49;55.96;99999.78;4497607;31;34969;-69
2023/09/03 02:42:57;;;;;;;2.30;1.20;;;;;;;21.53;55.88;100000.28;4496787;31;32515;-69
2023/09/03 02:45:24;;;;;;;2.97;1.55;;;;;;;21.55;55.93;100004.50;4494904;31;33230;-69
2023/09/03 02:47:52;;;;;;;1.37;1.00;;;;;;;21.52;56.12;100007.59;4497290;31;35017;-69
2023/09/03 02:50:20;;;;;;;1.73;1.10;;;;;;;21.54;56.13;100002.81;4490436;31;32804;-69
2023/09/03 02:52:48;;;;;;;2.40;1.37;;;;;;;21.60;56.08;100007.56;4496924;31;34295;-70
2023/09/03 02:55:16;;;;;;;3.47;1.42;;;;;;;21.68;55.87;100001.19;4498339;31;33196;-70
2023/09/03 02:57:44;;;;;;;3.83;1.45;;;;;;;21.62;56.05;100001.91;4492233;31;33639;-70
2023/09/03 03:00:11;;;;;;;9.93;3.25;;;;;;;21.62;56.26;100004.62;4497674;31;34976;-69
2023/09/03 03:02:39;;;;;;;1.85;1.00;;;;;;;21.45;56.56;100003.91;4497820;31;35415;-69
2023/09/03 03:05:07;;;;;;;3.50;1.77;;;;;;;21.53;56.51;100001.12;4498893;31;34410;-69
2023/09/03 03:07:37;;;;;;;2.72;1.62;;;;;;;21.50;56.67;100006.91;4493792;31;33707;-69
2023/09/03 03:10:05;;;;;;;2.70;1.23;;;;;;;21.45;56.80;100008.50;4486883;31;34963;-69
2023/09/03 03:12:33;;;;;;;3.03;1.35;;;;;;;21.60;56.46;100009.41;4497003;31;34558;-69
2023/09/03 03:15:01;;;;;;;3.25;1.62;;;;;;;21.55;56.55;100009.97;4493636;31;31861;-69
2023/09/03 03:17:30;;;;;;;1.92;1.30;;;;;;;21.67;56.34;100001.38;4497354;31;34684;-68
2023/09/03 03:19:57;;;;;;;1.83;1.40;;;;;;;21.62;56.52;100000.03;4498169;31;34311;-69
2023/09/03 03:22:25;;;;;;;2.87;1.45;;;;;;;21.64;56.61;99999.88;4497988;31;34896;-69
2023/09/03 03:24:53;;;;;;;1.42;1.02;;;;;;;21.66;56.69;100002.41;4497309;31;33455;-69
2023/09/03 03:27:20;;;;;;;2.15;1.10;;;;;;;21.69;56.66;99997.44;4495679;31;33887;-69
2023/09/03 03:29:52;;;;;;;3.95;1.73;;;;;;;21.68;56.79;100003.94;4495836;31;33782;-69
2023/09/03 03:32:19;;;;;;;3.53;1.80;;;;;;;21.73;56.68;100009.66;4498221;31;34352;-69
2023/09/03 03:34:49;;;;;;;3.53;1.48;;;;;;;21.69;56.94;100007.50;4494606;31;33137;-69
2023/09/03 03:37:17;;;;;;;2.12;1.10;;;;;;;21.84;56.47;100008.41;4492878;31;34004;-69
2023/09/03 03:39:48;;;;;;;1.60;1.02;;;;;;;21.89;56.31;100010.59;4496280;31;33742;-68
2023/09/03 03:42:16;;;;;;;3.78;1.48;;;;;;;21.95;56.07;100010.69;4496039;31;35251;-69
2023/09/03 03:44:44;;;;;;;2.28;1.42;;;;;;;21.98;55.94;100013.06;4489022;31;33306;-69
2023/09/03 03:47:12;;;;;;;3.12;1.23;;;;;;;22.01;55.93;100018.16;4497751;31;35006;-69
2023/09/03 03:49:40;;;;;;;3.40;1.80;;;;;;;22.02;56.06;100016.28;4495482;31;34067;-69
2023/09/03 03:52:07;;;;;;;2.15;1.20;;;;;;;22.02;55.93;100027.16;4497009;31;33626;-69
2023/09/03 03:54:35;;;;;;;4.22;1.60;;;;;;;21.97;56.06;100026.87;4496385;31;33336;-69
2023/09/03 03:57:03;;;;;;;1.85;0.93;;;;;;;21.98;56.12;100037.59;4495422;31;33883;-73
2023/09/03 03:59:32;;;;;;;3.12;1.25;;;;;;;21.97;56.18;100051.41;4494792;31;33537;-71
2023/09/03 04:02:01;;;;;;;1.85;0.95;;;;;;;21.91;56.55;100063.87;4496586;31;33579;-71
2023/09/03 04:04:28;;;;;;;1.98;1.10;;;;;;;21.92;56.64;100060.13;4498559;31;34031;-71
2023/09/03 04:06:56;;;;;;;3.00;1.17;;;;;;;21.85;56.80;100068.16;4488632;31;33633;-71
2023/09/03 04:09:24;;;;;;;2.65;1.40;;;;;;;21.97;56.52;100084.97;4492180;31;33464;-72
2023/09/03 04:11:51;;;;;;;3.15;1.40;;;;;;;21.99;56.57;100082.91;4494064;31;34787;-70
2023/09/03 04:14:19;;;;;;;3.42;2.00;;;;;;;21.69;57.56;100083.75;4488854;31;34588;-69
2023/09/03 04:16:47;;;;;;;1.45;0.73;;;;;;;21.93;56.93;100090.97;4486405;31;33447;-71
2023/09/03 04:19:14;;;;;;;2.37;1.17;;;;;;;22.04;56.61;100085.09;4492672;31;34604;-71
2023/09/03 04:21:42;;;;;;;2.55;1.52;;;;;;;21.84;57.28;100087.44;4495028;31;33533;-73
2023/09/03 04:24:10;;;;;;;2.70;1.42;;;;;;;22.00;56.95;100092.78;4492768;31;33176;-69
2023/09/03 04:26:38;;;;;;;4.22;1.90;;;;;;;21.86;57.45;100085.34;4490324;31;33595;-69
2023/09/03 04:29:06;;;;;;;1.75;1.05;;;;;;;22.05;56.79;100081.31;4498040;31;34870;-71
2023/09/03 04:31:37;;;;;;;1.42;1.02;;;;;;;22.14;56.59;100090.28;4495802;31;34611;-69
2023/09/03 04:34:06;;;;;;;2.42;1.02;;;;;;;22.16;56.58;100094.56;4499016;31;34445;-73
2023/09/03 04:36:34;;;;;;;3.33;1.30;;;;;;;22.23;56.48;100086.53;4498275;31;33525;-73
2023/09/03 04:39:03;;;;;;;3.85;1.62;;;;;;;22.33;56.33;100089.84;4499118;31;34291;-73
2023/09/03 04:41:31;;;;;;;1.27;0.88;;;;;;;22.36;56.27;100084.03;4495675;31;33331;-69
2023/09/03 04:44:08;;;;;;;3.37;1.67;;;;;;;22.43;56.04;100074.06;4499931;31;33219;-70
2023/09/03 04:46:37;;;;;;;1.55;0.93;;;;;;;22.35;56.60;100065.13;4499637;31;33834;-69
2023/09/03 04:49:05;;;;;;;1.98;1.20;;;;;;;22.57;56.01;100066.97;4498349;31;34069;-72
2023/09/03 04:51:33;;;;;;;2.22;1.45;;;;;;;22.63;55.82;100068.97;4496754;31;33276;-68
2023/09/03 04:54:02;;;;;;;2.03;1.05;;;;;;;22.69;55.57;100079.12;4465906;32;32972;-69
2023/09/03 04:56:29;;;;;;;5.15;1.17;;;;;;;22.81;55.68;100079.53;4476334;32;33263;-69
2023/09/03 04:58:57;;;;;;;3.83;1.37;;;;;;;22.88;55.98;100066.81;4477421;31;33883;-69
2023/09/03 05:01:25;;;;;;;2.42;1.33;;;;;;;22.84;56.21;100070.97;4472291;31;33523;-71
2023/09/03 05:03:53;;;;;;;2.05;1.00;;;;;;;23.10;55.08;100064.25;4487016;31;32990;-71
2023/09/03 05:06:21;;;;;;;3.40;1.65;;;;;;;23.12;55.06;100073.09;4481411;31;34755;-71
2023/09/03 05:08:49;;;;;;;2.20;1.27;;;;;;;23.06;55.17;100068.41;4479895;31;33664;-70
2023/09/03 05:11:18;;;;;;;2.80;1.58;;;;;;;23.24;54.83;100063.38;4479759;31;33921;-71
2023/09/03 05:13:46;;;;;;;1.80;1.00;;;;;;;23.45;54.38;100062.62;4479812;31;33040;-70
2023/09/03 05:16:14;;;;;;;3.08;1.52;;;;;;;23.56;54.12;100064.84;4478907;32;34689;-71
2023/09/03 05:18:42;;;;;;;3.78;1.42;;;;;;;23.59;54.21;100067.19;4478839;31;33947;-71
2023/09/03 05:21:10;;;;;;;4.03;1.83;;;;;;;23.39;54.91;100072.41;4476928;31;33782;-71
2023/09/03 05:23:38;;;;;;;3.78;1.58;;;;;;;23.37;55.64;100076.38;4481000;31;33044;-71
2023/09/03 05:26:06;;;;;;;3.53;1.62;;;;;;;23.40;56.40;100059.59;4492303;31;34785;-73
2023/09/03 05:28:34;;;;;;;5.70;2.37;;;;;;;23.32;56.77;100063.28;4490478;31;35706;-72
2023/09/03 05:31:02;;;;;;;6.03;1.92;;;;;;;23.34;57.31;100066.69;4498177;31;33656;-72
2023/09/03 05:33:31;;;;;;;3.08;1.40;;;;;;;22.91;57.69;100076.53;4497281;31;33079;-70
2023/09/03 05:35:58;;;;;;;2.25;0.95;;;;;;;23.03;57.40;100077.78;4490033;31;33732;-68
2023/09/03 05:38:26;;;;;;;3.20;0.73;;;;;;;22.77;57.72;100065.41;4494212;31;33846;-69
2023/09/03 05:40:58;;;;;;;1.98;0.65;;;;;;;22.60;56.37;100055.69;4493435;31;34577;-69
2023/09/03 05:43:26;;;;;;;3.40;0.73;;;;;;;22.40;57.45;100052.62;4494034;31;32400;-69
2023/09/03 05:45:55;;;;;;;3.97;1.23;;;;;;;22.00;58.70;100057.34;4490971;31;33574;-69
2023/09/03 05:48:23;;;;;;;0.98;0.55;;;;;;;22.38;58.00;100059.31;4490155;31;34082;-69
2023/09/03 05:51:03;;;;;;;3.03;1.12;;;;;;;22.56;57.94;100071.56;4497564;31;33292;-70
2023/09/03 05:53:32;;;;;;;2.78;1.10;;;;;;;22.42;59.87;100077.84;4497800;31;33673;-71
2023/09/03 05:56:08;;;;;;;7.03;0.95;;;;;;;22.84;58.89;100086.50;4499112;31;34097;-71
2023/09/03 05:58:36;;;;;;;2.75;1.02;;;;;;;22.89;59.38;100090.38;4496972;31;33786;-74
2023/09/03 06:01:08;;;;;;;2.08;1.12;;;;;;;22.74;60.01;100093.06;4494512;31;35268;-72
2023/09/03 06:03:38;;;;;;;2.67;1.50;;;;;;;22.78;60.03;100099.84;4495148;31;33278;-73
2023/09/03 06:06:07;;;;;;;3.25;1.25;;;;;;;22.80;60.11;100096.94;4498372;31;33413;-73
2023/09/03 06:08:38;;;;;;;6.18;1.85;;;;;;;22.59;61.35;100074.97;4495289;31;33960;-73
2023/09/03 06:11:06;;;;;;;3.47;1.73;;;;;;;22.74;61.45;100064.94;4492479;31;33530;-73
2023/09/03 06:13:33;;;;;;;5.03;1.65;;;;;;;22.82;61.04;100067.56;4496436;31;32929;-72
2023/09/03 06:16:01;;;;;;;2.90;0.95;;;;;;;22.85;61.05;100072.66;4494836;31;33798;-72
2023/09/03 06:18:29;;;;;;;3.97;1.37;;;;;;;22.86;60.92;100077.09;4497264;31;33981;-73
2023/09/03 06:20:57;;;;;;;3.47;1.35;;;;;;;22.88;61.07;100075.00;4493711;31;33470;-72
2023/09/03 06:23:26;;;;;;;1.58;0.98;;;;;;;22.89;61.47;100064.94;4495903;31;34139;-72
2023/09/03 06:25:54;;;;;;;2.58;0.95;;;;;;;22.92;61.31;100064.56;4495668;31;34576;-72
2023/09/03 06:28:21;;;;;;;2.50;0.88;;;;;;;22.94;61.34;100068.84;4497387;31;34032;-73
2023/09/03 06:30:49;;;;;;;4.12;0.82;;;;;;;22.77;61.74;100067.28;4495689;31;33683;-72
2023/09/03 06:33:17;;;;;;;1.75;0.70;;;;;;;23.01;61.48;100077.97;4488720;31;33406;-73
2023/09/03 06:35:45;;;;;;;1.23;0.68;;;;;;;23.00;61.38;100084.47;4494541;31;33900;-73
2023/09/03 06:38:12;;;;;;;4.65;0.70;;;;;;;23.09;60.58;100095.31;4496533;31;33915;-72
2023/09/03 06:40:40;;;;;;;1.37;0.90;;;;;;;23.11;59.47;100109.59;4496296;31;33540;-72
2023/09/03 06:43:07;;;;;;;2.00;0.85;;;;;;;23.04;59.51;100125.88;4494113;31;34090;-72
2023/09/03 06:45:35;;;;;;;2.78;1.33;;;;;;;23.06;59.63;100129.28;4498457;31;35030;-72
2023/09/03 06:48:03;;;;;;;2.70;1.37;;;;;;;23.10;59.85;100130.59;4496035;31;34273;-72
2023/09/03 06:50:31;;;;;;;2.40;0.85;;;;;;;22.68;61.92;100132.00;4496987;31;34385;-72
2023/09/03 06:52:58;;;;;;;3.45;1.12;;;;;;;22.93;61.21;100129.94;4496773;31;33110;-73
2023/09/03 06:55:26;;;;;;;3.87;1.10;;;;;;;22.98;61.37;100137.56;4491384;31;33871;-72
2023/09/03 06:57:54;;;;;;;5.47;1.45;;;;;;;22.78;62.65;100135.31;4497245;31;33441;-72
2023/09/03 07:00:21;;;;;;;2.85;0.93;;;;;;;22.50;64.10;100118.69;4489452;31;33683;-72
2023/09/03 07:02:49;;;;;;;2.72;0.98;;;;;;;22.61;63.99;100113.84;4491489;31;33937;-73
2023/09/03 07:05:17;;;;;;;6.60;0.82;;;;;;;22.69;63.90;100102.84;4495217;31;34649;-73
2023/09/03 07:07:44;;;;;;;2.90;0.68;;;;;;;22.67;64.12;100111.22;4494335;31;33739;-73
2023/09/03 07:10:12;;;;;;;1.00;0.55;;;;;;;22.88;63.28;100120.56;4496333;31;33447;-73
2023/09/03 07:12:40;;;;;;;1.45;0.65;;;;;;;23.01;62.96;100116.19;4495352;31;33067;-73
2023/09/03 07:15:08;;;;;;;2.20;0.95;;;;;;;23.02;63.19;100119.78;4494221;31;33508;-73
2023/09/03 07:17:36;;;;;;;1.00;0.80;;;;;;;23.14;63.00;100115.53;4492106;31;34878;-73
2023/09/03 07:20:04;;;;;;;2.12;0.80;;;;;;;23.21;63.23;100102.84;4497253;31;33422;-72
2023/09/03 07:22:31;;;;;;;4.32;1.62;;;;;;;23.31;63.33;100096.28;4495531;31;34108;-73
2023/09/03 07:24:59;;;;;;;2.35;0.98;;;;;;;23.34;63.33;100104.94;4495613;31;33809;-73
2023/09/03 07:27:27;;;;;;;2.60;0.73;;;;;;;23.40;63.09;100109.62;4495330;31;33790;-75
2023/09/03 07:29:55;;;;;;;1.65;0.70;;;;;;;23.45;62.71;100101.69;4498601;31;34338;-73
2023/09/03 07:32:23;;;;;;;2.10;0.93;;;;;;;23.57;61.61;100099.34;4489231;31;33353;-73
2023/09/03 07:34:51;;;;;;;1.80;0.70;;;;;;;23.60;60.48;100098.13;4495527;31;33867;-72
2023/09/03 07:37:18;;;;;;;1.95;0.98;;;;;;;23.66;59.78;100103.66;4491847;31;33727;-72
2023/09/03 07:39:46;;;;;;;3.25;0.62;;;;;;;23.72;59.96;100104.81;4495994;31;33946;-73
2023/09/03 07:42:14;;;;;;;1.45;0.85;;;;;;;23.80;59.78;100101.97;4493745;31;35154;-73
2023/09/03 07:44:41;;;;;;;0.75;0.43;;;;;;;23.88;59.79;100114.66;4496401;31;33830;-73
2023/09/03 07:47:09;;;;;;;1.35;0.55;;;;;;;23.94;60.07;100116.62;4490337;31;33781;-73
2023/09/03 07:49:37;;;;;;;2.22;1.10;;;;;;;23.97;59.90;100121.72;4488882;31;34015;-73
2023/09/03 07:52:07;;;;;;;3.40;0.93;;;;;;;23.98;59.46;100120.69;4486764;31;32898;-73
2023/09/03 07:54:34;;;;;;;1.30;0.80;;;;;;;24.09;58.72;100124.81;4488702;31;33902;-73
2023/09/03 07:57:02;;;;;;;1.55;1.00;;;;;;;24.04;57.44;100119.91;4493031;31;34962;-72
2023/09/03 07:59:29;;;;;;;0.85;0.60;;;;;;;24.05;57.19;100123.50;4485073;31;34303;-72
2023/09/03 08:02:01;;;;;;;1.65;0.73;;;;;;;23.85;57.97;100125.97;4487426;31;33061;-73
2023/09/03 08:04:30;;;;;;;4.57;1.00;;;;;;;23.86;59.15;100120.34;4497195;31;34698;-72
2023/09/03 08:06:57;;;;;;;3.50;0.45;;;;;;;24.04;57.61;100119.06;4496699;31;35359;-72
2023/09/03 08:09:26;;;;;;;1.45;0.65;;;;;;;24.04;57.93;100116.31;4491614;31;33660;-73
2023/09/03 08:11:54;;;;;;;1.33;0.73;;;;;;;24.08;58.75;100118.50;4492639;31;33213;-73
2023/09/03 08:14:24;;;;;;;1.73;1.00;;;;;;;23.83;59.76;100103.47;4494222;31;33759;-73
2023/09/03 08:16:52;;;;;;;4.10;1.27;;;;;;;23.70;60.79;100110.47;4490734;31;33983;-73
2023/09/03 08:19:19;;;;;;;3.42;1.48;;;;;;;23.67;62.00;100121.75;4497915;31;33706;-72
2023/09/03 08:21:47;;;;;;;2.40;0.82;;;;;;;23.95;60.84;100121.09;4488558;31;33797;-73
2023/09/03 08:24:15;;;;;;;4.68;1.52;;;;;;;24.17;60.28;100121.94;4493938;31;34975;-73
2023/09/03 08:26:42;;;;;;;2.03;0.98;;;;;;;24.29;60.05;100117.66;4496183;31;34900;-73
2023/09/03 08:29:11;;;;;;;2.45;1.05;;;;;;;24.36;60.26;100126.75;4497465;31;35159;-73
2023/09/03 08:31:38;;;;;;;2.45;1.25;;;;;;;24.43;59.54;100126.00;4489757;31;32210;-73
2023/09/03 08:34:06;;;;;;;2.05;1.17;;;;;;;24.57;59.22;100134.16;4493784;31;33597;-73
2023/09/03 08:36:34;;;;;;;2.22;1.15;;;;;;;24.64;59.34;100134.22;4496670;31;33803;-73
2023/09/03 08:39:02;;;;;;;1.92;1.12;;;;;;;24.41;58.94;100131.69;4496453;31;35561;-72
2023/09/03 08:41:31;;;;;;;1.62;0.93;;;;;;;24.71;58.36;100126.06;4494702;31;33441;-72
2023/09/03 08:44:04;;;;;;;1.75;0.57;;;;;;;24.78;57.51;100122.34;4489783;31;34758;-73
2023/09/03 08:46:34;;;;;;;2.20;1.02;;;;;;;24.55;57.00;100122.56;4495343;31;35209;-72
2023/09/03 08:49:02;;;;;;;1.40;0.82;;;;;;;24.72;57.30;100114.94;4497951;31;33649;-73
2023/09/03 08:51:31;;;;;;;2.15;1.02;;;;;;;24.98;56.79;100113.47;4460654;32;33241;-72
2023/09/03 08:54:00;;;;;;;2.47;0.90;;;;;;;25.08;56.84;100113.94;4455271;32;32217;-73
2023/09/03 08:56:28;;;;;;;1.60;1.05;;;;;;;25.08;56.40;100113.94;4447862;32;34141;-73
2023/09/03 08:58:55;;;;;;;2.62;1.23;;;;;;;24.88;56.76;100119.28;4457074;32;33362;-72
2023/09/03 09:01:23;;;;;;;2.53;1.12;;;;;;;24.53;55.95;100127.41;4456641;32;34137;-72
2023/09/03 09:03:54;;;;;;;2.90;1.25;;;;;;;25.03;54.52;100125.47;4452788;32;34079;-72
2023/09/03 09:06:22;;;;;;;2.85;1.33;;;;;;;25.08;55.57;100122.16;4455224;32;34280;-73
2023/09/03 09:08:50;;;;;;;2.35;1.27;;;;;;;25.08;56.45;100125.75;4455606;32;33464;-74
2023/09/03 09:11:19;;;;;;;2.45;1.35;;;;;;;24.55;56.84;100132.66;4424126;32;33081;-73
2023/09/03 09:13:55;;;;;;;2.35;1.40;;;;;;;24.83;57.63;100128.06;4426339;32;33796;-73
2023/09/03 09:16:23;;;;;;;3.53;1.37;;;;;;;24.92;58.39;100123.31;4424133;32;34898;-72
2023/09/03 09:18:51;;;;;;;4.07;1.75;;;;;;;25.17;57.20;100121.00;4430650;32;33400;-73
2023/09/03 09:21:19;;;;;;;2.55;1.35;;;;;;;25.11;56.46;100113.53;4422640;32;33448;-72
2023/09/03 09:23:47;;;;;;;2.70;1.30;;;;;;;25.13;56.19;100107.88;4456450;32;33628;-72
2023/09/03 09:26:18;;;;;;;2.47;1.12;;;;;;;24.98;55.68;100113.47;4468992;32;34964;-73
2023/09/03 09:29:02;;;;;;;2.17;1.30;;;;;;;24.89;56.58;100126.44;4477990;31;34382;-73
2023/09/03 09:31:31;;;;;;;2.35;1.30;;;;;;;24.85;56.95;100130.62;4474602;31;32961;-72
2023/09/03 09:34:14;;;;;;;2.00;0.98;;;;;;;25.18;55.92;100144.59;4478751;32;35188;-73
2023/09/03 09:36:53;;;;;;;3.12;1.20;;;;;;;24.90;54.79;100154.66;4477537;32;34094;-72
2023/09/03 09:39:20;;;;;;;2.03;1.00;;;;;;;25.23;55.00;100150.31;4476802;32;33501;-72
2023/09/03 09:42:12;;;;;;;2.72;1.00;;;;;;;24.63;54.40;100151.69;4451081;32;33226;-73
2023/09/03 09:44:55;;;;;;;1.60;0.85;;;;;;;25.00;53.77;100130.50;4476572;32;33726;-72
2023/09/03 09:47:23;;;;;;;2.95;1.08;;;;;;;25.07;53.74;100124.06;4475294;31;33684;-73
2023/09/03 09:49:50;;;;;;;2.45;0.90;;;;;;;25.27;54.02;100129.69;4475045;32;33558;-72
2023/09/03 09:52:19;;;;;;;1.60;0.93;;;;;;;24.92;54.88;100134.25;4472581;32;33514;-72
2023/09/03 09:54:48;;;;;;;1.85;0.95;;;;;;;24.81;53.14;100132.88;4475799;31;32569;-72
2023/09/03 09:57:22;;;;;;;1.45;0.77;;;;;;;25.53;51.86;100141.84;4477181;32;34081;-72
2023/09/03 10:00:00;;;;;;;1.20;0.73;;;;;;;24.92;54.16;100144.38;4478340;32;33591;-73
2023/09/03 10:02:31;;;;;;;1.42;0.77;;;;;;;25.19;53.28;100148.16;4474601;31;33262;-72
2023/09/03 10:04:59;;;;;;;1.73;0.93;;;;;;;24.63;51.29;100154.44;4478241;31;34931;-72
2023/09/03 10:07:27;;;;;;;1.12;0.85;;;;;;;24.98;51.30;100140.84;4466799;31;35216;-71
2023/09/03 10:09:55;;;;;;;1.92;1.10;;;;;;;24.59;52.25;100156.72;4468360;31;33016;-72
2023/09/03 10:12:22;;;;;;;2.72;0.90;;;;;;;24.01;54.17;100150.34;4460066;31;34128;-72
2023/09/03 10:14:50;;;;;;;1.10;0.68;;;;;;;24.52;52.21;100146.72;4494846;31;33822;-72
2023/09/03 10:17:18;;;;;;;0.82;0.52;;;;;;;24.34;53.25;100147.16;4492748;31;33805;-71
2023/09/03 10:19:51;;;;;;;1.48;0.57;;;;;;;24.24;53.97;100147.50;4496950;31;33796;-72
2023/09/03 10:22:20;;;;;;;0.93;0.62;;;;;;;24.04;54.41;100143.66;4487173;31;33064;-71
2023/09/03 10:25:00;;;;;;;1.08;0.60;;;;;;;23.75;54.82;100150.88;4494463;31;33883;-72
2023/09/03 10:27:31;;;;;;;2.17;0.82;;;;;;;24.19;53.96;100152.69;4477981;32;33992;-74
2023/09/03 10:30:04;;;;;;;0.50;0.50;;;;;;;24.76;52.45;100150.97;4479349;31;33415;-73
2023/09/03 10:32:32;;;;;;;1.08;0.75;;;;;;;24.14;53.97;100146.94;4474479;31;33047;-71
2023/09/03 10:35:10;;;;;;;1.55;0.62;;;;;;;24.30;54.86;100143.09;4470728;31;33762;-70
2023/09/03 10:37:39;;;;;;;2.83;1.05;;;;;;;24.61;53.55;100148.28;4464938;32;34124;-71
2023/09/03 10:40:21;;;;;;;2.83;1.20;;;;;;;25.04;52.46;100146.34;4473068;32;33618;-71
2023/09/03 10:42:53;;;;;;;3.37;1.08;;;;;;;25.03;52.53;100143.81;4473569;31;32790;-72
2023/09/03 10:45:21;;;;;;;2.72;1.08;;;;;;;24.35;55.50;100154.31;4448918;32;34779;-72
2023/09/03 10:48:05;;;;;;;1.60;0.95;;;;;;;24.51;54.41;100136.84;4446056;32;34732;-72
2023/09/03 10:50:48;;;;;;;3.60;1.55;;;;;;;24.44;55.18;100138.66;4398376;32;33031;-72
2023/09/03 10:53:35;;;;;;;2.50;1.10;;;;;;;24.35;55.06;100144.22;4395857;32;32961;-72
2023/09/03 10:56:15;;;;;;;2.17;1.33;;;;;;;23.92;56.80;100141.44;4390511;32;34104;-73
2023/09/03 10:59:12;;;;;;;2.20;1.12;;;;;;;24.07;57.00;100143.28;4393924;32;34983;-72
2023/09/03 11:01:39;;;;;;;1.85;1.15;;;;;;;24.24;56.13;100144.75;4330165;32;33759;-72
2023/09/03 11:04:07;;;;;;;3.00;1.05;;;;;;;24.12;56.21;100132.63;4342098;32;33415;-71
2023/09/03 11:06:35;;;;;;;3.67;1.45;;;;;;;24.30;55.61;100126.69;4334808;33;33922;-71
2023/09/03 11:09:12;;;;;;;3.33;1.25;;;;;;;24.71;55.60;100137.84;4334150;33;35626;-73
2023/09/03 11:11:40;;;;;;;3.42;1.17;;;;;;;24.08;57.05;100134.06;4335431;32;33916;-72
2023/09/03 11:14:10;;;;;;;2.78;1.33;;;;;;;24.38;56.71;100132.91;4339156;32;33126;-71
2023/09/03 11:16:41;;;;;;;2.72;1.40;;;;;;;24.38;56.20;100134.78;4360441;32;33545;-69
2023/09/03 11:19:09;;;;;;;2.70;1.37;;;;;;;24.09;57.52;100125.66;4389091;32;34011;-74
2023/09/03 11:21:37;;;;;;;2.65;1.33;;;;;;;24.67;55.98;100133.84;4404599;32;33598;-74
2023/09/03 11:24:08;;;;;;;3.30;1.25;;;;;;;24.49;55.74;100125.22;4428180;32;34331;-74
2023/09/03 11:26:37;;;;;;;2.83;1.70;;;;;;;24.39;56.17;100122.78;4432113;32;34809;-73
2023/09/03 11:29:20;;;;;;;2.75;1.45;;;;;;;24.21;57.27;100128.72;4434091;32;33719;-72
2023/09/03 11:31:49;;;;;;;1.65;1.05;;;;;;;24.66;56.28;100132.16;4425106;32;34423;-73
2023/09/03 11:34:28;;;;;;;1.98;1.17;;;;;;;24.30;57.31;100127.56;4433322;32;33099;-71
2023/09/03 11:36:57;;;;;;;3.87;1.67;;;;;;;24.32;55.75;100128.19;4432742;32;33743;-71
2023/09/03 11:39:25;;;;;;;2.80;1.37;;;;;;;24.24;55.87;100130.19;4492393;31;34727;-71